sensor_id;sensor_type;location;lat;lon;timestamp;P1;durP1;ratioP1;P2;durP2;ratioP2
17858;SDS011;35426;30.698;104.050;2023-02-01T00:02:21;244.43;;;109.63;;
17858;SDS011;35426;30.698;104.050;2023-02-01T00:04:57;248.50;;;111.53;;
17858;SDS011;35426;30.698;104.050;2023-02-01T00:07:40;237.13;;;108.37;;
17858;SDS011;35426;30.698;104.050;2023-02-01T00:10:18;239.67;;;109.77;;
17858;SDS011;35426;30.698;104.050;2023-02-01T00:13:00;228.57;;;111.20;;
17858;SDS011;35426;30.698;104.050;2023-02-01T00:15:37;238.60;;;110.87;;
17858;SDS011;35426;30.698;104.050;2023-02-01T00:18:17;232.30;;;110.87;;
17858;SDS011;35426;30.698;104.050;2023-02-01T00:20:52;241.07;;;111.83;;
17858;SDS011;35426;30.698;104.050;2023-02-01T00:23:31;248.27;;;112.13;;
17858;SDS011;35426;30.698;104.050;2023-02-01T00:26:08;234.17;;;111.30;;
17858;SDS011;35426;30.698;104.050;2023-02-01T00:28:50;245.97;;;111.50;;
17858;SDS011;35426;30.698;104.050;2023-02-01T00:31:28;238.10;;;114.13;;
17858;SDS011;35426;30.698;104.050;2023-02-01T00:34:04;244.60;;;116.80;;
17858;SDS011;35426;30.698;104.050;2023-02-01T00:36:45;249.73;;;115.07;;
17858;SDS011;35426;30.698;104.050;2023-02-01T00:39:22;234.73;;;110.40;;
17858;SDS011;35426;30.698;104.050;2023-02-01T00:42:02;237.20;;;112.97;;
17858;SDS011;35426;30.698;104.050;2023-02-01T00:44:40;243.77;;;110.90;;
17858;SDS011;35426;30.698;104.050;2023-02-01T00:47:18;235.53;;;113.73;;
17858;SDS011;35426;30.698;104.050;2023-02-01T00:49:55;233.73;;;114.10;;
17858;SDS011;35426;30.698;104.050;2023-02-01T00:52:35;229.50;;;110.07;;
17858;SDS011;35426;30.698;104.050;2023-02-01T00:55:14;243.43;;;110.77;;
17858;SDS011;35426;30.698;104.050;2023-02-01T00:57:54;227.87;;;110.43;;
17858;SDS011;35426;30.698;104.050;2023-02-01T01:00:32;241.57;;;110.83;;
17858;SDS011;35426;30.698;104.050;2023-02-01T01:03:08;234.27;;;110.20;;
17858;SDS011;35426;30.698;104.050;2023-02-01T01:05:50;249.80;;;113.50;;
17858;SDS011;35426;30.698;104.050;2023-02-01T01:08:32;241.60;;;111.60;;
17858;SDS011;35426;30.698;104.050;2023-02-01T01:11:12;237.53;;;113.03;;
17858;SDS011;35426;30.698;104.050;2023-02-01T01:13:52;229.10;;;111.83;;
17858;SDS011;35426;30.698;104.050;2023-02-01T01:16:32;229.57;;;112.87;;
17858;SDS011;35426;30.698;104.050;2023-02-01T01:19:10;225.83;;;109.30;;
17858;SDS011;35426;30.698;104.050;2023-02-01T01:21:50;227.97;;;109.67;;
17858;SDS011;35426;30.698;104.050;2023-02-01T01:24:31;241.53;;;112.60;;
17858;SDS011;35426;30.698;104.050;2023-02-01T01:27:07;238.63;;;110.10;;
17858;SDS011;35426;30.698;104.050;2023-02-01T01:29:53;225.80;;;109.43;;
17858;SDS011;35426;30.698;104.050;2023-02-01T01:32:34;225.60;;;107.53;;
17858;SDS011;35426;30.698;104.050;2023-02-01T01:35:11;220.60;;;107.63;;
17858;SDS011;35426;30.698;104.050;2023-02-01T01:37:49;238.23;;;108.90;;
17858;SDS011;35426;30.698;104.050;2023-02-01T01:40:26;237.57;;;110.83;;
17858;SDS011;35426;30.698;104.050;2023-02-01T01:43:03;239.07;;;108.87;;
17858;SDS011;35426;30.698;104.050;2023-02-01T01:45:47;224.63;;;107.60;;
17858;SDS011;35426;30.698;104.050;2023-02-01T01:48:29;229.37;;;111.73;;
17858;SDS011;35426;30.698;104.050;2023-02-01T01:51:10;234.40;;;109.57;;
17858;SDS011;35426;30.698;104.050;2023-02-01T01:53:50;220.63;;;107.87;;
17858;SDS011;35426;30.698;104.050;2023-02-01T01:56:34;221.10;;;107.73;;
17858;SDS011;35426;30.698;104.050;2023-02-01T01:59:15;221.77;;;107.07;;
17858;SDS011;35426;30.698;104.050;2023-02-01T02:01:54;226.87;;;110.83;;
17858;SDS011;35426;30.698;104.050;2023-02-01T02:04:38;222.23;;;108.33;;
17858;SDS011;35426;30.698;104.050;2023-02-01T02:07:14;231.67;;;107.90;;
17858;SDS011;35426;30.698;104.050;2023-02-01T02:09:58;229.67;;;107.90;;
17858;SDS011;35426;30.698;104.050;2023-02-01T02:12:35;225.77;;;107.37;;
17858;SDS011;35426;30.698;104.050;2023-02-01T02:15:20;225.93;;;107.57;;
17858;SDS011;35426;30.698;104.050;2023-02-01T02:18:05;212.17;;;105.87;;
17858;SDS011;35426;30.698;104.050;2023-02-01T02:20:57;222.90;;;106.57;;
17858;SDS011;35426;30.698;104.050;2023-02-01T02:27:10;203.60;;;104.60;;
17858;SDS011;35426;30.698;104.050;2023-02-01T02:30:18;211.07;;;107.30;;
17858;SDS011;35426;30.698;104.050;2023-02-01T02:36:36;208.10;;;103.47;;
17858;SDS011;35426;30.698;104.050;2023-02-01T02:39:29;199.80;;;103.10;;
17858;SDS011;35426;30.698;104.050;2023-02-01T02:42:16;229.43;;;109.77;;
17858;SDS011;35426;30.698;104.050;2023-02-01T02:45:16;223.60;;;107.53;;
17858;SDS011;35426;30.698;104.050;2023-02-01T02:48:15;217.37;;;107.17;;
17858;SDS011;35426;30.698;104.050;2023-02-01T02:50:58;220.60;;;105.73;;
17858;SDS011;35426;30.698;104.050;2023-02-01T02:54:00;217.73;;;106.60;;
17858;SDS011;35426;30.698;104.050;2023-02-01T02:56:58;219.57;;;107.20;;
17858;SDS011;35426;30.698;104.050;2023-02-01T02:59:53;211.40;;;106.53;;
17858;SDS011;35426;30.698;104.050;2023-02-01T03:02:49;209.73;;;104.73;;
17858;SDS011;35426;30.698;104.050;2023-02-01T03:05:45;212.70;;;107.50;;
17858;SDS011;35426;30.698;104.050;2023-02-01T03:08:26;225.03;;;106.53;;
17858;SDS011;35426;30.698;104.050;2023-02-01T03:11:15;210.70;;;107.67;;
17858;SDS011;35426;30.698;104.050;2023-02-01T03:13:52;220.87;;;107.27;;
17858;SDS011;35426;30.698;104.050;2023-02-01T03:16:31;211.97;;;108.77;;
17858;SDS011;35426;30.698;104.050;2023-02-01T03:19:17;230.83;;;108.80;;
17858;SDS011;35426;30.698;104.050;2023-02-01T03:22:03;212.97;;;110.13;;
17858;SDS011;35426;30.698;104.050;2023-02-01T03:24:49;210.80;;;107.80;;
17858;SDS011;35426;30.698;104.050;2023-02-01T03:27:28;225.33;;;111.20;;
17858;SDS011;35426;30.698;104.050;2023-02-01T03:30:09;221.00;;;110.67;;
17858;SDS011;35426;30.698;104.050;2023-02-01T03:32:54;214.63;;;110.33;;
17858;SDS011;35426;30.698;104.050;2023-02-01T03:35:36;210.40;;;109.17;;
17858;SDS011;35426;30.698;104.050;2023-02-01T03:38:20;228.43;;;111.93;;
17858;SDS011;35426;30.698;104.050;2023-02-01T03:41:07;221.27;;;110.67;;
17858;SDS011;35426;30.698;104.050;2023-02-01T03:44:01;217.23;;;110.33;;
17858;SDS011;35426;30.698;104.050;2023-02-01T03:46:46;220.17;;;110.00;;
17858;SDS011;35426;30.698;104.050;2023-02-01T03:49:25;222.70;;;109.53;;
17858;SDS011;35426;30.698;104.050;2023-02-01T03:52:06;234.13;;;113.70;;
17858;SDS011;35426;30.698;104.050;2023-02-01T03:54:50;213.77;;;108.80;;
17858;SDS011;35426;30.698;104.050;2023-02-01T03:57:37;222.67;;;110.77;;
17858;SDS011;35426;30.698;104.050;2023-02-01T04:00:23;246.90;;;110.53;;
17858;SDS011;35426;30.698;104.050;2023-02-01T04:03:05;224.33;;;109.00;;
17858;SDS011;35426;30.698;104.050;2023-02-01T04:05:50;218.53;;;112.07;;
17858;SDS011;35426;30.698;104.050;2023-02-01T04:08:30;218.70;;;108.17;;
17858;SDS011;35426;30.698;104.050;2023-02-01T04:11:10;216.77;;;109.43;;
17858;SDS011;35426;30.698;104.050;2023-02-01T04:14:15;213.83;;;110.50;;
17858;SDS011;35426;30.698;104.050;2023-02-01T04:17:00;214.43;;;111.40;;
17858;SDS011;35426;30.698;104.050;2023-02-01T04:19:40;230.50;;;112.43;;
17858;SDS011;35426;30.698;104.050;2023-02-01T04:22:23;212.33;;;109.27;;
17858;SDS011;35426;30.698;104.050;2023-02-01T04:25:03;219.37;;;105.10;;
17858;SDS011;35426;30.698;104.050;2023-02-01T04:27:47;216.20;;;110.30;;
17858;SDS011;35426;30.698;104.050;2023-02-01T04:30:32;219.87;;;109.60;;
17858;SDS011;35426;30.698;104.050;2023-02-01T04:33:12;221.43;;;110.57;;
17858;SDS011;35426;30.698;104.050;2023-02-01T04:35:51;229.73;;;112.07;;
17858;SDS011;35426;30.698;104.050;2023-02-01T04:38:27;212.97;;;110.47;;
17858;SDS011;35426;30.698;104.050;2023-02-01T04:41:06;221.43;;;108.23;;
17858;SDS011;35426;30.698;104.050;2023-02-01T04:43:49;222.40;;;108.43;;
17858;SDS011;35426;30.698;104.050;2023-02-01T04:46:35;218.93;;;109.67;;
17858;SDS011;35426;30.698;104.050;2023-02-01T04:49:14;223.47;;;112.67;;
17858;SDS011;35426;30.698;104.050;2023-02-01T04:51:55;234.60;;;112.93;;
17858;SDS011;35426;30.698;104.050;2023-02-01T04:54:32;237.60;;;114.23;;
17858;SDS011;35426;30.698;104.050;2023-02-01T04:57:09;229.83;;;116.43;;
17858;SDS011;35426;30.698;104.050;2023-02-01T04:59:52;229.63;;;114.60;;
17858;SDS011;35426;30.698;104.050;2023-02-01T05:05:48;248.10;;;115.83;;
17858;SDS011;35426;30.698;104.050;2023-02-01T05:08:27;253.03;;;118.13;;
17858;SDS011;35426;30.698;104.050;2023-02-01T05:11:06;242.37;;;115.07;;
17858;SDS011;35426;30.698;104.050;2023-02-01T05:14:04;245.40;;;113.50;;
17858;SDS011;35426;30.698;104.050;2023-02-01T05:16:39;253.40;;;115.73;;
17858;SDS011;35426;30.698;104.050;2023-02-01T05:19:18;235.03;;;113.03;;
17858;SDS011;35426;30.698;104.050;2023-02-01T05:22:09;250.30;;;111.77;;
17858;SDS011;35426;30.698;104.050;2023-02-01T05:24:50;228.83;;;112.63;;
17858;SDS011;35426;30.698;104.050;2023-02-01T05:27:30;244.57;;;117.40;;
17858;SDS011;35426;30.698;104.050;2023-02-01T05:30:09;247.17;;;117.90;;
17858;SDS011;35426;30.698;104.050;2023-02-01T05:32:53;241.13;;;118.43;;
17858;SDS011;35426;30.698;104.050;2023-02-01T05:35:42;250.53;;;119.37;;
17858;SDS011;35426;30.698;104.050;2023-02-01T05:38:23;250.97;;;122.60;;
17858;SDS011;35426;30.698;104.050;2023-02-01T05:41:14;247.27;;;124.07;;
17858;SDS011;35426;30.698;104.050;2023-02-01T05:43:57;262.03;;;126.00;;
17858;SDS011;35426;30.698;104.050;2023-02-01T05:46:40;254.70;;;124.83;;
17858;SDS011;35426;30.698;104.050;2023-02-01T05:49:20;256.23;;;119.50;;
17858;SDS011;35426;30.698;104.050;2023-02-01T05:51:56;240.27;;;114.97;;
17858;SDS011;35426;30.698;104.050;2023-02-01T05:54:39;256.33;;;120.83;;
17858;SDS011;35426;30.698;104.050;2023-02-01T05:57:25;253.33;;;121.80;;
17858;SDS011;35426;30.698;104.050;2023-02-01T06:00:06;252.63;;;121.97;;
17858;SDS011;35426;30.698;104.050;2023-02-01T06:02:50;249.20;;;120.23;;
17858;SDS011;35426;30.698;104.050;2023-02-01T06:05:29;244.50;;;120.47;;
17858;SDS011;35426;30.698;104.050;2023-02-01T06:08:14;256.00;;;120.93;;
17858;SDS011;35426;30.698;104.050;2023-02-01T06:11:08;229.97;;;111.00;;
17858;SDS011;35426;30.698;104.050;2023-02-01T06:14:00;247.53;;;116.47;;
17858;SDS011;35426;30.698;104.050;2023-02-01T06:16:38;235.30;;;109.30;;
17858;SDS011;35426;30.698;104.050;2023-02-01T06:19:16;183.70;;;95.13;;
17858;SDS011;35426;30.698;104.050;2023-02-01T06:21:55;177.57;;;83.90;;
17858;SDS011;35426;30.698;104.050;2023-02-01T06:24:36;178.67;;;88.03;;
17858;SDS011;35426;30.698;104.050;2023-02-01T06:27:15;204.53;;;94.30;;
17858;SDS011;35426;30.698;104.050;2023-02-01T06:29:51;185.93;;;89.90;;
17858;SDS011;35426;30.698;104.050;2023-02-01T06:32:31;162.13;;;76.40;;
17858;SDS011;35426;30.698;104.050;2023-02-01T06:35:28;163.10;;;80.93;;
17858;SDS011;35426;30.698;104.050;2023-02-01T06:38:06;167.73;;;77.70;;
17858;SDS011;35426;30.698;104.050;2023-02-01T06:40:44;163.80;;;80.70;;
17858;SDS011;35426;30.698;104.050;2023-02-01T06:43:35;159.50;;;76.53;;
17858;SDS011;35426;30.698;104.050;2023-02-01T06:46:17;151.93;;;71.07;;
17858;SDS011;35426;30.698;104.050;2023-02-01T06:48:56;143.30;;;67.93;;
17858;SDS011;35426;30.698;104.050;2023-02-01T06:51:39;136.80;;;61.57;;
17858;SDS011;35426;30.698;104.050;2023-02-01T06:54:16;134.77;;;64.93;;
17858;SDS011;35426;30.698;104.050;2023-02-01T06:56:57;137.57;;;62.23;;
17858;SDS011;35426;30.698;104.050;2023-02-01T06:59:37;140.13;;;62.73;;
17858;SDS011;35426;30.698;104.050;2023-02-01T07:02:16;139.50;;;63.03;;
17858;SDS011;35426;30.698;104.050;2023-02-01T07:04:56;130.57;;;59.43;;
17858;SDS011;35426;30.698;104.050;2023-02-01T07:07:32;122.77;;;58.03;;
17858;SDS011;35426;30.698;104.050;2023-02-01T07:10:10;130.73;;;61.30;;
17858;SDS011;35426;30.698;104.050;2023-02-01T07:12:51;127.60;;;58.67;;
17858;SDS011;35426;30.698;104.050;2023-02-01T07:15:45;127.37;;;57.80;;
17858;SDS011;35426;30.698;104.050;2023-02-01T07:18:26;119.97;;;56.30;;
17858;SDS011;35426;30.698;104.050;2023-02-01T07:21:03;122.03;;;55.93;;
17858;SDS011;35426;30.698;104.050;2023-02-01T07:23:43;108.13;;;53.83;;
17858;SDS011;35426;30.698;104.050;2023-02-01T07:26:20;122.43;;;54.33;;
17858;SDS011;35426;30.698;104.050;2023-02-01T07:29:26;114.40;;;53.30;;
17858;SDS011;35426;30.698;104.050;2023-02-01T07:32:05;117.07;;;52.80;;
17858;SDS011;35426;30.698;104.050;2023-02-01T07:34:41;104.40;;;52.87;;
17858;SDS011;35426;30.698;104.050;2023-02-01T07:37:20;109.00;;;52.00;;
17858;SDS011;35426;30.698;104.050;2023-02-01T07:39:58;105.33;;;50.67;;
17858;SDS011;35426;30.698;104.050;2023-02-01T07:42:40;107.87;;;52.50;;
17858;SDS011;35426;30.698;104.050;2023-02-01T07:45:21;109.00;;;51.40;;
17858;SDS011;35426;30.698;104.050;2023-02-01T07:48:06;110.30;;;50.90;;
17858;SDS011;35426;30.698;104.050;2023-02-01T07:50:56;107.73;;;50.57;;
17858;SDS011;35426;30.698;104.050;2023-02-01T07:53:39;116.27;;;52.23;;
17858;SDS011;35426;30.698;104.050;2023-02-01T07:56:20;114.00;;;51.57;;
17858;SDS011;35426;30.698;104.050;2023-02-01T07:59:00;119.83;;;53.60;;
17858;SDS011;35426;30.698;104.050;2023-02-01T08:01:42;130.67;;;55.57;;
17858;SDS011;35426;30.698;104.050;2023-02-01T08:04:24;116.43;;;53.53;;
17858;SDS011;35426;30.698;104.050;2023-02-01T08:07:03;104.17;;;53.23;;
17858;SDS011;35426;30.698;104.050;2023-02-01T08:09:41;122.97;;;56.93;;
17858;SDS011;35426;30.698;104.050;2023-02-01T08:12:19;117.47;;;56.23;;
17858;SDS011;35426;30.698;104.050;2023-02-01T08:15:08;117.50;;;55.73;;
17858;SDS011;35426;30.698;104.050;2023-02-01T08:17:48;119.53;;;54.50;;
17858;SDS011;35426;30.698;104.050;2023-02-01T08:20:31;124.17;;;56.20;;
17858;SDS011;35426;30.698;104.050;2023-02-01T08:23:13;135.07;;;56.40;;
17858;SDS011;35426;30.698;104.050;2023-02-01T08:26:04;119.07;;;55.50;;
17858;SDS011;35426;30.698;104.050;2023-02-01T08:28:42;117.23;;;55.70;;
17858;SDS011;35426;30.698;104.050;2023-02-01T08:31:21;120.93;;;55.80;;
17858;SDS011;35426;30.698;104.050;2023-02-01T08:34:00;136.17;;;56.83;;
17858;SDS011;35426;30.698;104.050;2023-02-01T08:36:44;122.47;;;55.93;;
17858;SDS011;35426;30.698;104.050;2023-02-01T08:39:23;115.67;;;55.33;;
17858;SDS011;35426;30.698;104.050;2023-02-01T08:42:02;124.60;;;55.93;;
17858;SDS011;35426;30.698;104.050;2023-02-01T08:44:54;122.20;;;56.23;;
17858;SDS011;35426;30.698;104.050;2023-02-01T08:47:33;129.37;;;55.97;;
17858;SDS011;35426;30.698;104.050;2023-02-01T08:50:10;123.00;;;55.87;;
17858;SDS011;35426;30.698;104.050;2023-02-01T08:52:52;128.03;;;58.10;;
17858;SDS011;35426;30.698;104.050;2023-02-01T08:55:28;134.33;;;60.40;;
17858;SDS011;35426;30.698;104.050;2023-02-01T08:58:06;129.53;;;59.60;;
17858;SDS011;35426;30.698;104.050;2023-02-01T09:00:52;141.07;;;61.03;;
17858;SDS011;35426;30.698;104.050;2023-02-01T09:03:29;144.00;;;61.83;;
17858;SDS011;35426;30.698;104.050;2023-02-01T09:06:06;143.07;;;63.73;;
17858;SDS011;35426;30.698;104.050;2023-02-01T09:08:46;140.27;;;61.43;;
17858;SDS011;35426;30.698;104.050;2023-02-01T09:11:22;140.27;;;64.97;;
17858;SDS011;35426;30.698;104.050;2023-02-01T09:13:58;163.17;;;72.87;;
17858;SDS011;35426;30.698;104.050;2023-02-01T09:16:40;177.97;;;79.87;;
17858;SDS011;35426;30.698;104.050;2023-02-01T09:19:21;164.10;;;74.37;;
17858;SDS011;35426;30.698;104.050;2023-02-01T09:22:01;186.27;;;84.43;;
17858;SDS011;35426;30.698;104.050;2023-02-01T09:24:50;181.73;;;82.47;;
17858;SDS011;35426;30.698;104.050;2023-02-01T09:27:27;168.97;;;79.80;;
17858;SDS011;35426;30.698;104.050;2023-02-01T09:30:03;167.90;;;80.93;;
17858;SDS011;35426;30.698;104.050;2023-02-01T09:32:50;177.40;;;82.43;;
17858;SDS011;35426;30.698;104.050;2023-02-01T09:35:31;183.40;;;83.73;;
17858;SDS011;35426;30.698;104.050;2023-02-01T09:38:08;189.90;;;86.10;;
17858;SDS011;35426;30.698;104.050;2023-02-01T09:43:41;178.80;;;84.33;;
17858;SDS011;35426;30.698;104.050;2023-02-01T09:46:31;189.33;;;89.83;;
17858;SDS011;35426;30.698;104.050;2023-02-01T09:49:11;187.13;;;87.97;;
17858;SDS011;35426;30.698;104.050;2023-02-01T09:51:52;185.10;;;88.50;;
17858;SDS011;35426;30.698;104.050;2023-02-01T09:54:29;183.43;;;85.80;;
17858;SDS011;35426;30.698;104.050;2023-02-01T09:57:17;188.27;;;88.90;;
17858;SDS011;35426;30.698;104.050;2023-02-01T09:59:59;187.87;;;88.07;;
17858;SDS011;35426;30.698;104.050;2023-02-01T10:02:54;199.10;;;90.67;;
17858;SDS011;35426;30.698;104.050;2023-02-01T10:08:47;194.17;;;92.93;;
17858;SDS011;35426;30.698;104.050;2023-02-01T10:11:39;204.97;;;93.20;;
17858;SDS011;35426;30.698;104.050;2023-02-01T10:14:44;201.50;;;95.17;;
17858;SDS011;35426;30.698;104.050;2023-02-01T10:17:36;198.30;;;94.37;;
17858;SDS011;35426;30.698;104.050;2023-02-01T10:20:27;212.03;;;93.87;;
17858;SDS011;35426;30.698;104.050;2023-02-01T10:23:11;206.00;;;95.53;;
17858;SDS011;35426;30.698;104.050;2023-02-01T10:26:05;211.20;;;92.50;;
17858;SDS011;35426;30.698;104.050;2023-02-01T10:28:51;202.47;;;94.47;;
17858;SDS011;35426;30.698;104.050;2023-02-01T10:31:34;217.50;;;97.03;;
17858;SDS011;35426;30.698;104.050;2023-02-01T10:34:15;213.87;;;95.43;;
17858;SDS011;35426;30.698;104.050;2023-02-01T10:37:09;222.13;;;96.97;;
17858;SDS011;35426;30.698;104.050;2023-02-01T10:40:05;210.97;;;96.40;;
17858;SDS011;35426;30.698;104.050;2023-02-01T10:42:54;213.00;;;95.93;;
17858;SDS011;35426;30.698;104.050;2023-02-01T10:45:37;220.63;;;97.43;;
17858;SDS011;35426;30.698;104.050;2023-02-01T10:48:17;206.87;;;96.33;;
17858;SDS011;35426;30.698;104.050;2023-02-01T10:51:00;213.10;;;95.77;;
17858;SDS011;35426;30.698;104.050;2023-02-01T10:53:41;215.87;;;97.97;;
17858;SDS011;35426;30.698;104.050;2023-02-01T10:56:22;211.70;;;94.03;;
17858;SDS011;35426;30.698;104.050;2023-02-01T10:59:00;223.40;;;95.07;;
17858;SDS011;35426;30.698;104.050;2023-02-01T11:01:58;209.80;;;92.07;;
17858;SDS011;35426;30.698;104.050;2023-02-01T11:04:37;214.57;;;96.03;;
17858;SDS011;35426;30.698;104.050;2023-02-01T11:07:15;201.90;;;94.30;;
17858;SDS011;35426;30.698;104.050;2023-02-01T11:09:59;216.60;;;96.80;;
17858;SDS011;35426;30.698;104.050;2023-02-01T11:12:43;210.70;;;95.77;;
17858;SDS011;35426;30.698;104.050;2023-02-01T11:15:31;221.30;;;94.60;;
17858;SDS011;35426;30.698;104.050;2023-02-01T11:18:18;207.17;;;93.63;;
17858;SDS011;35426;30.698;104.050;2023-02-01T11:21:06;202.70;;;91.90;;
17858;SDS011;35426;30.698;104.050;2023-02-01T11:23:46;205.13;;;94.00;;
17858;SDS011;35426;30.698;104.050;2023-02-01T11:26:24;208.50;;;94.10;;
17858;SDS011;35426;30.698;104.050;2023-02-01T11:29:03;204.10;;;93.23;;
17858;SDS011;35426;30.698;104.050;2023-02-01T11:31:44;198.67;;;91.13;;
17858;SDS011;35426;30.698;104.050;2023-02-01T11:34:26;206.40;;;88.77;;
17858;SDS011;35426;30.698;104.050;2023-02-01T11:37:18;203.27;;;93.63;;
17858;SDS011;35426;30.698;104.050;2023-02-01T11:40:03;208.17;;;88.70;;
17858;SDS011;35426;30.698;104.050;2023-02-01T11:43:01;204.03;;;89.63;;
17858;SDS011;35426;30.698;104.050;2023-02-01T11:46:01;193.30;;;87.43;;
17858;SDS011;35426;30.698;104.050;2023-02-01T11:48:55;193.57;;;87.00;;
17858;SDS011;35426;30.698;104.050;2023-02-01T11:52:03;184.47;;;82.87;;
17858;SDS011;35426;30.698;104.050;2023-02-01T11:54:55;183.40;;;82.13;;
17858;SDS011;35426;30.698;104.050;2023-02-01T11:57:55;201.30;;;85.90;;
17858;SDS011;35426;30.698;104.050;2023-02-01T12:00:55;178.30;;;82.63;;
17858;SDS011;35426;30.698;104.050;2023-02-01T12:03:48;185.13;;;83.00;;
17858;SDS011;35426;30.698;104.050;2023-02-01T12:06:48;193.90;;;83.63;;
17858;SDS011;35426;30.698;104.050;2023-02-01T12:09:31;180.53;;;82.93;;
17858;SDS011;35426;30.698;104.050;2023-02-01T12:12:41;192.00;;;82.43;;
17858;SDS011;35426;30.698;104.050;2023-02-01T12:15:35;179.40;;;83.47;;
17858;SDS011;35426;30.698;104.050;2023-02-01T12:18:32;184.70;;;83.63;;
17858;SDS011;35426;30.698;104.050;2023-02-01T12:21:31;180.93;;;84.93;;
17858;SDS011;35426;30.698;104.050;2023-02-01T12:24:23;191.17;;;84.13;;
17858;SDS011;35426;30.698;104.050;2023-02-01T12:31:11;185.07;;;85.63;;
17858;SDS011;35426;30.698;104.050;2023-02-01T12:34:12;178.93;;;81.77;;
17858;SDS011;35426;30.698;104.050;2023-02-01T12:37:13;193.20;;;83.37;;
17858;SDS011;35426;30.698;104.050;2023-02-01T12:40:02;187.67;;;83.47;;
17858;SDS011;35426;30.698;104.050;2023-02-01T12:42:59;174.03;;;84.17;;
17858;SDS011;35426;30.698;104.050;2023-02-01T12:45:40;179.60;;;81.27;;
17858;SDS011;35426;30.698;104.050;2023-02-01T12:48:33;184.57;;;82.17;;
17858;SDS011;35426;30.698;104.050;2023-02-01T12:51:18;185.93;;;81.70;;
17858;SDS011;35426;30.698;104.050;2023-02-01T12:54:00;185.40;;;83.20;;
17858;SDS011;35426;30.698;104.050;2023-02-01T12:56:49;179.77;;;81.97;;
17858;SDS011;35426;30.698;104.050;2023-02-01T12:59:40;181.57;;;83.97;;
17858;SDS011;35426;30.698;104.050;2023-02-01T13:02:27;183.13;;;85.60;;
17858;SDS011;35426;30.698;104.050;2023-02-01T13:05:19;187.33;;;83.63;;
17858;SDS011;35426;30.698;104.050;2023-02-01T13:08:00;179.47;;;82.70;;
17858;SDS011;35426;30.698;104.050;2023-02-01T13:10:46;179.80;;;83.73;;
17858;SDS011;35426;30.698;104.050;2023-02-01T13:13:48;178.13;;;83.27;;
17858;SDS011;35426;30.698;104.050;2023-02-01T13:16:37;184.77;;;79.80;;
17858;SDS011;35426;30.698;104.050;2023-02-01T13:19:23;178.60;;;81.43;;
17858;SDS011;35426;30.698;104.050;2023-02-01T13:22:17;173.83;;;81.57;;
17858;SDS011;35426;30.698;104.050;2023-02-01T13:25:00;169.77;;;79.27;;
17858;SDS011;35426;30.698;104.050;2023-02-01T13:27:46;174.80;;;80.23;;
17858;SDS011;35426;30.698;104.050;2023-02-01T13:30:37;173.97;;;77.60;;
17858;SDS011;35426;30.698;104.050;2023-02-01T13:33:58;166.63;;;77.47;;
17858;SDS011;35426;30.698;104.050;2023-02-01T13:37:18;179.37;;;78.97;;
17858;SDS011;35426;30.698;104.050;2023-02-01T13:40:20;167.00;;;78.03;;
17858;SDS011;35426;30.698;104.050;2023-02-01T13:43:21;170.60;;;77.37;;
17858;SDS011;35426;30.698;104.050;2023-02-01T13:46:08;179.63;;;79.13;;
17858;SDS011;35426;30.698;104.050;2023-02-01T13:48:50;168.43;;;77.43;;
17858;SDS011;35426;30.698;104.050;2023-02-01T13:51:40;181.47;;;78.80;;
17858;SDS011;35426;30.698;104.050;2023-02-01T13:54:27;173.83;;;80.30;;
17858;SDS011;35426;30.698;104.050;2023-02-01T13:57:14;177.43;;;80.70;;
17858;SDS011;35426;30.698;104.050;2023-02-01T14:00:25;172.10;;;79.10;;
17858;SDS011;35426;30.698;104.050;2023-02-01T14:03:11;181.93;;;80.40;;
17858;SDS011;35426;30.698;104.050;2023-02-01T14:06:00;174.33;;;80.23;;
17858;SDS011;35426;30.698;104.050;2023-02-01T14:15:31;171.17;;;78.67;;
17858;SDS011;35426;30.698;104.050;2023-02-01T14:21:26;178.33;;;80.47;;
17858;SDS011;35426;30.698;104.050;2023-02-01T14:24:14;182.33;;;81.47;;
17858;SDS011;35426;30.698;104.050;2023-02-01T14:26:59;163.97;;;77.37;;
17858;SDS011;35426;30.698;104.050;2023-02-01T14:30:26;180.00;;;80.37;;
17858;SDS011;35426;30.698;104.050;2023-02-01T14:33:22;182.70;;;81.47;;
17858;SDS011;35426;30.698;104.050;2023-02-01T14:36:03;184.57;;;83.40;;
17858;SDS011;35426;30.698;104.050;2023-02-01T14:38:48;181.33;;;83.70;;
17858;SDS011;35426;30.698;104.050;2023-02-01T14:41:31;178.90;;;82.50;;
17858;SDS011;35426;30.698;104.050;2023-02-01T14:47:33;182.00;;;81.53;;
17858;SDS011;35426;30.698;104.050;2023-02-01T14:50:29;185.70;;;83.27;;
17858;SDS011;35426;30.698;104.050;2023-02-01T14:53:22;185.07;;;84.63;;
17858;SDS011;35426;30.698;104.050;2023-02-01T14:56:06;183.83;;;84.77;;
17858;SDS011;35426;30.698;104.050;2023-02-01T14:59:06;181.43;;;84.63;;
17858;SDS011;35426;30.698;104.050;2023-02-01T15:01:49;184.97;;;86.67;;
17858;SDS011;35426;30.698;104.050;2023-02-01T15:04:41;176.17;;;84.87;;
17858;SDS011;35426;30.698;104.050;2023-02-01T15:07:22;188.77;;;84.13;;
17858;SDS011;35426;30.698;104.050;2023-02-01T15:10:08;186.47;;;88.07;;
17858;SDS011;35426;30.698;104.050;2023-02-01T15:12:56;183.07;;;86.57;;
17858;SDS011;35426;30.698;104.050;2023-02-01T15:15:38;186.07;;;85.90;;
17858;SDS011;35426;30.698;104.050;2023-02-01T15:18:16;194.77;;;86.80;;
17858;SDS011;35426;30.698;104.050;2023-02-01T15:20:57;182.50;;;84.63;;
17858;SDS011;35426;30.698;104.050;2023-02-01T15:31:08;178.80;;;81.57;;
17858;SDS011;35426;30.698;104.050;2023-02-01T15:33:57;168.63;;;78.27;;
17858;SDS011;35426;30.698;104.050;2023-02-01T15:36:33;178.70;;;81.83;;
17858;SDS011;35426;30.698;104.050;2023-02-01T15:39:29;176.50;;;80.10;;
17858;SDS011;35426;30.698;104.050;2023-02-01T15:42:16;189.23;;;82.07;;
17858;SDS011;35426;30.698;104.050;2023-02-01T15:45:03;172.83;;;79.63;;
17858;SDS011;35426;30.698;104.050;2023-02-01T15:47:56;178.50;;;83.63;;
17858;SDS011;35426;30.698;104.050;2023-02-01T15:50:38;177.70;;;80.73;;
17858;SDS011;35426;30.698;104.050;2023-02-01T15:53:16;178.20;;;82.00;;
17858;SDS011;35426;30.698;104.050;2023-02-01T15:55:59;182.87;;;84.13;;
17858;SDS011;35426;30.698;104.050;2023-02-01T15:58:42;184.30;;;81.27;;